createdAt,value
2018-04-14T00:00:33.320Z,991.23
2018-04-14T00:01:33.313Z,991.23
2018-04-14T00:02:33.309Z,991.27
2018-04-14T00:03:33.312Z,991.32
2018-04-14T00:04:33.304Z,991.34
2018-04-14T00:05:33.294Z,991.24
2018-04-14T00:06:33.287Z,991.27
2018-04-14T00:07:33.284Z,991.23
2018-04-14T00:08:33.287Z,991.19
2018-04-14T00:09:33.273Z,991.2
2018-04-14T00:10:33.268Z,991.25
2018-04-14T00:11:33.261Z,991.26
2018-04-14T00:12:33.255Z,991.25
2018-04-14T00:13:33.250Z,991.25
2018-04-14T00:14:33.245Z,991.25
2018-04-14T00:15:33.241Z,991.28
2018-04-14T00:16:33.245Z,991.3
2018-04-14T00:17:33.237Z,991.3
2018-04-14T00:18:33.226Z,991.33
2018-04-14T00:19:33.236Z,991.33
2018-04-14T00:20:33.223Z,991.37
2018-04-14T00:21:33.211Z,991.33
2018-04-14T00:22:33.205Z,991.35
2018-04-14T00:23:33.200Z,991.35
2018-04-14T00:24:33.197Z,991.37
2018-04-14T00:25:33.204Z,991.38
2018-04-14T00:26:33.185Z,991.33
2018-04-14T00:27:33.181Z,991.32
2018-04-14T00:28:33.178Z,991.33
2018-04-14T00:29:33.169Z,991.36
2018-04-14T00:30:33.167Z,991.4
2018-04-14T00:31:33.157Z,991.35
2018-04-14T00:32:33.154Z,991.4
2018-04-14T00:33:33.151Z,991.43
2018-04-14T00:34:33.149Z,991.45
2018-04-14T00:35:33.146Z,991.44
2018-04-14T00:36:33.143Z,991.48
2018-04-14T00:37:33.128Z,991.47
2018-04-14T00:38:33.122Z,991.46
2018-04-14T00:39:33.123Z,991.49
2018-04-14T00:40:33.115Z,991.5
2018-04-14T00:41:33.112Z,991.51
2018-04-14T00:42:33.107Z,991.54
2018-04-14T00:43:33.110Z,991.52
2018-04-14T00:44:33.102Z,991.54
2018-04-14T00:45:33.096Z,991.46
2018-04-14T00:46:33.107Z,991.46
2018-04-14T00:47:33.094Z,991.52
2018-04-14T00:48:33.074Z,991.47
2018-04-14T00:49:33.070Z,991.48
2018-04-14T00:50:33.064Z,991.45
2018-04-14T00:51:33.061Z,991.41
2018-04-14T00:52:33.056Z,991.43
2018-04-14T00:53:33.057Z,991.45
2018-04-14T00:54:33.055Z,991.46
2018-04-14T00:55:33.042Z,991.46
2018-04-14T00:56:33.038Z,991.49
2018-04-14T00:57:33.037Z,991.54
2018-04-14T00:58:33.041Z,991.56
2018-04-14T00:59:33.020Z,991.56
2018-04-14T01:00:33.019Z,991.58
2018-04-14T01:01:33.011Z,991.56
2018-04-14T01:02:33.005Z,991.57
2018-04-14T01:03:33.002Z,991.52
2018-04-14T01:04:33.008Z,991.57
2018-04-14T01:05:33.001Z,991.56
2018-04-14T01:06:32.987Z,991.54
2018-04-14T01:07:32.981Z,991.56
2018-04-14T01:08:32.979Z,991.55
2018-04-14T01:09:32.973Z,991.62
2018-04-14T01:10:32.975Z,991.6
2018-04-14T01:11:32.962Z,991.55
2018-04-14T01:12:32.957Z,991.61
2018-04-14T01:13:32.952Z,991.54
2018-04-14T01:14:32.948Z,991.59
2018-04-14T01:15:32.940Z,991.55
2018-04-14T01:16:32.936Z,991.54
2018-04-14T01:17:32.933Z,991.55
2018-04-14T01:18:32.926Z,991.61
2018-04-14T01:19:32.922Z,991.58
2018-04-14T01:20:32.919Z,991.63
2018-04-14T01:21:32.912Z,991.64
2018-04-14T01:22:32.905Z,991.63
2018-04-14T01:23:32.902Z,991.65
2018-04-14T01:24:32.896Z,991.62
2018-04-14T01:25:32.890Z,991.62
2018-04-14T01:26:32.884Z,991.65
2018-04-14T01:27:32.882Z,991.65
2018-04-14T01:28:32.873Z,991.62
2018-04-14T01:29:32.871Z,991.64
2018-04-14T01:30:32.864Z,991.68
2018-04-14T01:31:32.870Z,991.64
2018-04-14T01:32:32.854Z,991.69
2018-04-14T01:33:32.848Z,991.69
2018-04-14T01:34:32.842Z,991.65
2018-04-14T01:35:32.842Z,991.72
2018-04-14T01:36:32.831Z,991.7
2018-04-14T01:37:32.825Z,991.72
2018-04-14T01:38:32.833Z,991.71
2018-04-14T01:39:32.818Z,991.71
2018-04-14T01:40:32.810Z,991.7
2018-04-14T01:41:32.804Z,991.7
2018-04-14T01:42:32.799Z,991.69
2018-04-14T01:43:32.791Z,991.74
2018-04-14T01:44:32.787Z,991.71
2018-04-14T01:45:32.785Z,991.68
2018-04-14T01:46:32.775Z,991.7
2018-04-14T01:47:32.774Z,991.73
2018-04-14T01:48:32.765Z,991.72
2018-04-14T01:49:32.761Z,991.72
2018-04-14T01:50:32.757Z,991.75
2018-04-14T01:51:32.747Z,991.8
2018-04-14T01:52:32.743Z,991.79
2018-04-14T01:53:32.740Z,991.79
2018-04-14T01:54:32.732Z,991.75
2018-04-14T01:55:32.726Z,991.73
2018-04-14T01:56:32.725Z,991.73
2018-04-14T01:57:32.718Z,991.73
2018-04-14T01:58:32.710Z,991.7
2018-04-14T01:59:32.704Z,991.72
2018-04-14T02:00:32.700Z,991.71
2018-04-14T02:01:32.694Z,991.72
2018-04-14T02:02:32.690Z,991.75
2018-04-14T02:03:32.682Z,991.73
2018-04-14T02:04:32.678Z,991.75
2018-04-14T02:05:32.670Z,991.74
2018-04-14T02:06:32.735Z,991.72
2018-04-14T02:07:32.741Z,991.75
2018-04-14T02:08:32.655Z,991.78
2018-04-14T02:09:32.648Z,991.76
2018-04-14T02:10:32.643Z,991.81
2018-04-14T02:11:32.638Z,991.79
2018-04-14T02:12:32.635Z,991.78
2018-04-14T02:13:32.627Z,991.77
2018-04-14T02:14:32.624Z,991.8
2018-04-14T02:15:32.618Z,991.78
2018-04-14T02:16:32.620Z,991.8
2018-04-14T02:17:32.604Z,991.79
2018-04-14T02:18:32.599Z,991.82
2018-04-14T02:19:32.845Z,991.81
2018-04-14T02:20:32.589Z,991.84
2018-04-14T02:21:32.583Z,991.86
2018-04-14T02:22:32.576Z,991.86
2018-04-14T02:23:32.571Z,991.85
2018-04-14T02:24:32.566Z,991.84
2018-04-14T02:25:32.564Z,991.83
2018-04-14T02:26:32.567Z,991.85
2018-04-14T02:27:32.550Z,991.82
2018-04-14T02:28:32.544Z,991.8
2018-04-14T02:29:32.539Z,991.82
2018-04-14T02:30:32.537Z,991.79
2018-04-14T02:31:32.527Z,991.79
2018-04-14T02:32:32.521Z,991.81
2018-04-14T02:33:32.518Z,991.78
2018-04-14T02:34:32.521Z,991.76
2018-04-14T02:35:32.510Z,991.77
2018-04-14T02:36:32.506Z,991.69
2018-04-14T02:37:32.518Z,991.76
2018-04-14T02:38:32.491Z,991.77
2018-04-14T02:39:32.485Z,991.77
2018-04-14T02:40:32.476Z,991.79
2018-04-14T02:41:32.477Z,991.76
2018-04-14T02:42:32.468Z,991.77
2018-04-14T02:43:32.477Z,991.81
2018-04-14T02:44:33.257Z,991.77
2018-04-14T02:45:32.458Z,991.77
2018-04-14T02:46:32.457Z,991.76
2018-04-14T02:47:32.450Z,991.75
2018-04-14T02:48:32.436Z,991.79
2018-04-14T02:49:32.427Z,991.78
2018-04-14T02:50:32.428Z,991.82
2018-04-14T02:51:32.420Z,991.81
2018-04-14T02:52:32.409Z,991.82
2018-04-14T02:53:32.415Z,991.85
2018-04-14T02:54:32.396Z,991.88
2018-04-14T02:55:32.393Z,991.85
2018-04-14T02:56:32.392Z,991.86
2018-04-14T02:57:32.379Z,991.83
2018-04-14T02:58:32.376Z,991.8
2018-04-14T02:59:32.373Z,991.82
2018-04-14T03:00:32.365Z,991.81
2018-04-14T03:01:32.359Z,991.85
2018-04-14T03:02:32.352Z,991.84
2018-04-14T03:03:32.346Z,991.87
2018-04-14T03:04:32.340Z,991.89
2018-04-14T03:05:32.337Z,991.85
2018-04-14T03:06:32.331Z,991.84
2018-04-14T03:07:32.323Z,991.82
2018-04-14T03:08:32.317Z,991.87
2018-04-14T03:09:32.314Z,991.87
2018-04-14T03:10:32.308Z,991.88
2018-04-14T03:11:32.301Z,991.87
2018-04-14T03:12:32.296Z,991.89
2018-04-14T03:13:32.307Z,991.89
2018-04-14T03:14:32.284Z,991.93
2018-04-14T03:15:32.281Z,991.93
2018-04-14T03:16:32.273Z,991.87
2018-04-14T03:17:32.268Z,991.9
2018-04-14T03:18:32.260Z,991.87
2018-04-14T03:19:32.259Z,991.92
2018-04-14T03:20:32.250Z,991.96
2018-04-14T03:21:32.244Z,991.94
2018-04-14T03:22:32.238Z,991.99
2018-04-14T03:23:32.232Z,991.98
2018-04-14T03:24:32.227Z,992.01
2018-04-14T03:25:32.221Z,992
2018-04-14T03:26:32.214Z,991.97
2018-04-14T03:27:32.209Z,991.96
2018-04-14T03:28:32.207Z,991.99
2018-04-14T03:29:32.198Z,991.97
2018-04-14T03:37:32.489Z,992.09
2018-04-14T03:38:26.023Z,992.09
2018-04-14T03:39:26.021Z,992.07
2018-04-14T03:40:26.012Z,992.07
2018-04-14T03:41:26.006Z,992.07
2018-04-14T03:42:25.999Z,992.09
2018-04-14T03:43:25.998Z,992.06
2018-04-14T03:44:25.989Z,992.07
2018-04-14T03:45:25.983Z,992.01
2018-04-14T03:46:25.977Z,992.04
2018-04-14T03:47:25.972Z,992.06
2018-04-14T03:48:25.966Z,992.06
2018-04-14T03:49:25.964Z,992.06
2018-04-14T03:50:25.956Z,992.08
2018-04-14T03:51:25.949Z,992.06
2018-04-14T03:52:25.945Z,992.1
2018-04-14T03:53:25.946Z,992.15
2018-04-14T03:54:25.930Z,992.14
2018-04-14T03:55:25.929Z,992.09
2018-04-14T03:56:25.919Z,992.08
2018-04-14T03:57:25.915Z,992.12
2018-04-14T03:58:25.910Z,992.1
2018-04-14T03:59:25.904Z,992.13
2018-04-14T04:00:25.894Z,992.17
2018-04-14T04:01:25.891Z,992.17
2018-04-14T04:02:25.884Z,992.22
2018-04-14T04:03:25.880Z,992.21
2018-04-14T04:04:25.872Z,992.26
2018-04-14T04:05:25.866Z,992.29
2018-04-14T04:06:25.861Z,992.3
2018-04-14T04:07:25.854Z,992.26
2018-04-14T04:08:28.701Z,992.26
2018-04-14T04:09:25.888Z,992.29
2018-04-14T04:10:25.840Z,992.29
2018-04-14T04:11:25.829Z,992.28
2018-04-14T04:12:25.825Z,992.3
2018-04-14T04:13:25.819Z,992.32
2018-04-14T04:14:25.829Z,992.35
2018-04-14T04:15:25.809Z,992.35
2018-04-14T04:16:25.800Z,992.39
2018-04-14T04:17:25.795Z,992.42
2018-04-14T04:18:25.788Z,992.44
2018-04-14T04:19:25.786Z,992.45
2018-04-14T04:20:25.776Z,992.47
2018-04-14T04:21:25.770Z,992.5
2018-04-14T04:22:25.763Z,992.51
2018-04-14T04:23:25.757Z,992.56
2018-04-14T04:24:25.751Z,992.62
2018-04-14T04:25:25.744Z,992.63
2018-04-14T04:26:25.739Z,992.64
2018-04-14T04:27:25.733Z,992.65
2018-04-14T04:28:25.729Z,992.67
2018-04-14T04:29:25.720Z,992.69
2018-04-14T04:30:25.715Z,992.72
2018-04-14T04:31:25.711Z,992.73
2018-04-14T04:32:25.703Z,992.73
2018-04-14T04:33:25.702Z,992.72
2018-04-14T04:34:25.695Z,992.75
2018-04-14T04:35:25.691Z,992.77
2018-04-14T04:36:25.697Z,992.77
2018-04-14T04:37:25.675Z,992.79
2018-04-14T04:38:25.669Z,992.82
2018-04-14T04:39:25.664Z,992.79
2018-04-14T04:40:25.653Z,992.81
2018-04-14T04:41:25.647Z,992.82
2018-04-14T04:42:25.641Z,992.82
2018-04-14T04:43:25.641Z,992.83
2018-04-14T04:44:25.635Z,992.88
2018-04-14T04:45:25.622Z,992.85
2018-04-14T04:46:25.618Z,992.91
2018-04-14T04:47:25.610Z,992.93
2018-04-14T04:48:25.605Z,992.9
2018-04-14T04:49:25.597Z,992.95
2018-04-14T04:50:25.593Z,992.88
2018-04-14T04:51:25.585Z,992.9
2018-04-14T04:52:25.582Z,992.89
2018-04-14T04:53:25.578Z,992.92
2018-04-14T04:54:25.576Z,992.93
2018-04-14T04:55:25.560Z,992.93
2018-04-14T04:56:25.555Z,992.94
2018-04-14T04:57:25.552Z,992.97
2018-04-14T04:58:25.575Z,992.95
2018-04-14T04:59:25.590Z,992.98
2018-04-14T05:00:25.531Z,993.04
2018-04-14T05:01:25.532Z,993.08
2018-04-14T05:02:25.520Z,993.12
2018-04-14T05:03:25.517Z,993.14
2018-04-14T05:04:25.570Z,993.13
2018-04-14T05:05:25.507Z,993.08
2018-04-14T05:06:25.501Z,993.13
2018-04-14T05:07:25.490Z,993.12
2018-04-14T05:08:25.487Z,993.09
2018-04-14T05:09:25.481Z,993.12
2018-04-14T05:10:25.476Z,993.16
2018-04-14T05:11:25.478Z,993.09
2018-04-14T05:12:25.476Z,993.15
2018-04-14T05:13:25.461Z,993.15
2018-04-14T05:14:25.462Z,993.14
2018-04-14T05:15:25.451Z,993.15
2018-04-14T05:16:25.448Z,993.12
2018-04-14T05:17:25.445Z,993.16
2018-04-14T05:18:25.437Z,993.18
2018-04-14T05:19:25.437Z,993.17
2018-04-14T05:20:25.429Z,993.18
2018-04-14T05:21:25.426Z,993.17
2018-04-14T05:22:25.420Z,993.21
2018-04-14T05:23:25.416Z,993.22
2018-04-14T05:24:26.468Z,993.21
2018-04-14T05:25:25.406Z,993.23
2018-04-14T05:26:25.402Z,993.23
2018-04-14T05:27:25.397Z,993.27
2018-04-14T05:28:25.393Z,993.3
2018-04-14T05:29:25.389Z,993.26
2018-04-14T05:30:25.386Z,993.28
2018-04-14T05:31:25.384Z,993.29
2018-04-14T05:32:25.380Z,993.23
2018-04-14T05:33:25.374Z,993.23
2018-04-14T05:34:25.369Z,993.22
2018-04-14T05:35:25.366Z,993.24
2018-04-14T05:36:25.362Z,993.24
2018-04-14T05:37:25.409Z,993.21
2018-04-14T05:38:25.361Z,993.22
2018-04-14T05:39:25.350Z,993.22
2018-04-14T05:40:25.350Z,993.24
2018-04-14T05:41:25.344Z,993.17
2018-04-14T05:42:25.338Z,993.26
2018-04-14T05:43:25.335Z,993.25
2018-04-14T05:44:25.331Z,993.27
2018-04-14T05:45:25.328Z,993.28
2018-04-14T05:46:25.324Z,993.23
2018-04-14T05:47:25.324Z,993.24
2018-04-14T05:48:25.317Z,993.25
2018-04-14T05:49:25.313Z,993.25
2018-04-14T05:50:25.310Z,993.26
2018-04-14T05:51:25.309Z,993.32
2018-04-14T05:52:25.310Z,993.29
2018-04-14T05:53:25.300Z,993.29
2018-04-14T05:54:25.298Z,993.31
2018-04-14T05:55:25.299Z,993.32
2018-04-14T05:56:25.292Z,993.29
2018-04-14T05:57:25.288Z,993.32
2018-04-14T05:58:25.287Z,993.3
2018-04-14T05:59:25.286Z,993.34
2018-04-14T06:00:25.285Z,993.32
2018-04-14T06:01:25.285Z,993.36
2018-04-14T06:02:25.277Z,993.41
2018-04-14T06:03:25.275Z,993.37
2018-04-14T06:04:25.274Z,993.37
2018-04-14T06:05:25.267Z,993.42
2018-04-14T06:06:25.266Z,993.39
2018-04-14T06:07:25.261Z,993.42
2018-04-14T06:08:25.259Z,993.46
2018-04-14T06:09:25.255Z,993.46
2018-04-14T06:10:25.250Z,993.5
2018-04-14T06:11:25.250Z,993.46
2018-04-14T06:12:25.244Z,993.5
2018-04-14T06:22:02.334Z,993.7
2018-04-14T06:23:01.822Z,993.68
2018-04-14T06:24:01.818Z,993.73
2018-04-14T06:25:01.815Z,993.75
2018-04-14T06:26:01.803Z,993.77
2018-04-14T06:27:02.895Z,993.79
2018-04-14T06:28:01.793Z,993.84
2018-04-14T06:29:01.787Z,993.79
2018-04-14T06:30:01.787Z,993.81
2018-04-14T06:31:01.780Z,993.83
2018-04-14T06:32:01.782Z,993.84
2018-04-14T06:33:01.787Z,993.85
2018-04-14T06:34:01.785Z,993.85
2018-04-14T06:35:01.784Z,993.86
2018-04-14T06:36:01.776Z,993.87
2018-04-14T06:37:01.781Z,993.85
2018-04-14T06:38:01.775Z,993.88
2018-04-14T06:39:01.775Z,993.9
2018-04-14T06:40:01.776Z,993.88
2018-04-14T06:41:01.788Z,993.82
2018-04-14T06:42:01.777Z,993.85
2018-04-14T06:43:01.786Z,993.85
2018-04-14T06:44:01.790Z,993.9
2018-04-14T06:45:01.788Z,993.86
2018-04-14T06:46:01.791Z,993.91
2018-04-14T06:47:01.790Z,993.88
2018-04-14T06:48:01.793Z,993.89
2018-04-14T06:49:01.794Z,993.87
2018-04-14T06:50:01.807Z,993.82
2018-04-14T06:51:01.797Z,993.84
2018-04-14T06:52:01.805Z,993.86
2018-04-14T06:53:01.806Z,993.84
2018-04-14T06:54:01.812Z,993.92
2018-04-14T06:55:01.811Z,993.91
2018-04-14T06:56:01.820Z,993.91
2018-04-14T06:57:01.818Z,993.99
2018-04-14T06:58:01.821Z,993.9
2018-04-14T06:59:01.825Z,993.86
2018-04-14T07:00:01.831Z,993.98
2018-04-14T07:01:01.838Z,993.94
2018-04-14T07:02:01.836Z,993.96
2018-04-14T07:03:01.849Z,993.95
2018-04-14T07:04:01.853Z,994
2018-04-14T07:05:01.854Z,993.93
2018-04-14T07:06:01.859Z,993.96
2018-04-14T07:07:01.861Z,993.97
2018-04-14T07:08:01.865Z,993.96
2018-04-14T07:09:01.864Z,993.95
2018-04-14T07:10:01.874Z,993.99
2018-04-14T07:11:01.876Z,993.99
2018-04-14T07:12:01.881Z,993.99
2018-04-14T07:13:01.882Z,994.02
2018-04-14T07:14:01.887Z,994
2018-04-14T07:15:01.894Z,993.99
2018-04-14T07:16:01.900Z,994.01
2018-04-14T07:17:01.903Z,994.02
2018-04-14T07:18:02.416Z,993.97
2018-04-14T07:19:01.911Z,994
2018-04-14T07:20:01.914Z,993.98
2018-04-14T07:21:01.919Z,994.01
2018-04-14T07:22:01.924Z,994
2018-04-14T07:23:02.379Z,994
2018-04-14T07:24:01.933Z,994.02
2018-04-14T07:25:01.936Z,994.07
2018-04-14T07:26:01.938Z,993.98
2018-04-14T07:27:01.941Z,993.98
2018-04-14T07:28:03.699Z,993.98
2018-04-14T07:29:01.947Z,994
2018-04-14T07:30:01.965Z,993.98
2018-04-14T07:31:01.949Z,994.08
2018-04-14T07:32:01.958Z,994.08
2018-04-14T07:33:01.961Z,994.07
2018-04-14T07:34:01.960Z,994.02
2018-04-14T07:35:01.958Z,994.05
2018-04-14T07:36:01.961Z,994.08
2018-04-14T07:37:01.962Z,994.07
2018-04-14T07:38:01.964Z,994.05
2018-04-14T07:39:01.967Z,994.08
2018-04-14T07:40:01.973Z,994.06
2018-04-14T07:41:01.987Z,994.08
2018-04-14T07:42:01.976Z,994.14
2018-04-14T07:43:02.050Z,994.13
2018-04-14T07:44:01.984Z,994.14
2018-04-14T07:45:02.003Z,994.13
2018-04-14T07:46:01.989Z,994.12
2018-04-14T07:47:01.992Z,994.14
2018-04-14T07:48:01.998Z,994.06
2018-04-14T07:49:02.000Z,994.07
2018-04-14T07:50:02.008Z,994.07
2018-04-14T07:51:02.010Z,994.08
2018-04-14T07:52:02.013Z,994.15
2018-04-14T07:53:02.025Z,994.15
2018-04-14T07:54:02.022Z,994.13
2018-04-14T07:55:02.021Z,994.11
2018-04-14T07:56:02.028Z,994.13
2018-04-14T07:57:02.033Z,994.06
2018-04-14T07:58:02.034Z,994.12
2018-04-14T07:59:02.037Z,994.09
2018-04-14T08:00:02.038Z,994.11
2018-04-14T08:01:02.043Z,994.14
2018-04-14T08:02:02.049Z,994.17
2018-04-14T08:03:02.054Z,994.14
2018-04-14T08:04:02.054Z,994.16
2018-04-14T08:05:02.060Z,994.1
2018-04-14T08:06:02.062Z,994.13
2018-04-14T08:07:02.073Z,994.12
2018-04-14T08:08:02.088Z,994.06
2018-04-14T08:09:02.075Z,994.09
2018-04-14T08:10:02.092Z,994.07
2018-04-14T08:11:02.105Z,994.1
2018-04-14T08:12:02.095Z,994.12
2018-04-14T08:13:02.092Z,994.11
2018-04-14T08:14:02.097Z,994.14
2018-04-14T08:15:02.105Z,994.22
2018-04-14T08:16:02.121Z,994.18
2018-04-14T08:17:02.117Z,994.16
2018-04-14T08:18:02.115Z,994.19
2018-04-14T08:19:02.120Z,994.18
2018-04-14T08:20:02.124Z,994.15
2018-04-14T08:21:02.130Z,994.12
2018-04-14T08:22:02.155Z,994.11
2018-04-14T08:23:02.153Z,994.13
2018-04-14T08:24:02.158Z,994.13
2018-04-14T08:25:02.156Z,994.16
2018-04-14T08:26:02.171Z,994.15
2018-04-14T08:27:02.169Z,994.17
2018-04-14T08:28:02.171Z,994.15
2018-04-14T08:29:02.174Z,994.2
2018-04-14T08:30:02.196Z,994.16
2018-04-14T08:31:02.184Z,994.2
2018-04-14T08:32:02.189Z,994.17
2018-04-14T08:33:02.195Z,994.15
2018-04-14T08:34:02.199Z,994.16
2018-04-14T08:35:02.212Z,994.17
2018-04-14T08:36:02.210Z,994.15
2018-04-14T08:37:02.216Z,994.16
2018-04-14T08:38:02.221Z,994.13
2018-04-14T08:39:02.225Z,994.11
2018-04-14T08:40:02.231Z,994.12
2018-04-14T08:41:02.275Z,994.13
2018-04-14T08:42:02.242Z,994.17
2018-04-14T08:43:02.268Z,994.2
2018-04-14T08:44:05.807Z,994.18
2018-04-14T08:45:02.259Z,994.21
2018-04-14T08:46:02.263Z,994.17
2018-04-14T08:47:02.267Z,994.16
2018-04-14T08:48:02.274Z,994.26
2018-04-14T08:49:02.276Z,994.19
2018-04-14T08:50:02.280Z,994.18
2018-04-14T08:51:02.285Z,994.18
2018-04-14T08:52:02.290Z,994.2
2018-04-14T08:53:02.293Z,994.15
2018-04-14T08:54:02.319Z,994.17
2018-04-14T08:55:02.298Z,994.18
2018-04-14T08:56:02.301Z,994.17
2018-04-14T08:57:02.304Z,994.19
2018-04-14T08:58:02.325Z,994.19
2018-04-14T08:59:02.330Z,994.17
2018-04-14T09:00:02.313Z,994.15
2018-04-14T09:01:02.319Z,994.15
2018-04-14T09:02:02.366Z,994.15
2018-04-14T09:03:02.320Z,994.14
2018-04-14T09:04:02.323Z,994.13
2018-04-14T09:05:02.329Z,994.08
2018-04-14T09:06:02.331Z,994.14
2018-04-14T09:07:02.330Z,994.12
2018-04-14T09:08:02.334Z,994.12
2018-04-14T09:09:02.341Z,994.13
2018-04-14T09:10:02.335Z,994.11
2018-04-14T09:11:02.341Z,994.09
2018-04-14T09:12:02.345Z,994.04
2018-04-14T09:13:02.341Z,994.08
2018-04-14T09:14:02.346Z,994.1
2018-04-14T09:15:02.348Z,994.09
2018-04-14T09:16:02.376Z,994.08
2018-04-14T09:17:02.350Z,994.14
2018-04-14T09:18:02.351Z,994.1
2018-04-14T09:19:02.355Z,994.11
2018-04-14T09:20:02.708Z,994.1
2018-04-14T09:21:02.359Z,994.07
2018-04-14T09:22:02.366Z,994.07
2018-04-14T09:23:02.368Z,994.07
2018-04-14T09:24:02.365Z,994.08
2018-04-14T09:25:02.368Z,994.04
2018-04-14T09:26:02.414Z,994.14
2018-04-14T09:27:02.416Z,994.11
2018-04-14T09:28:02.376Z,994.16
2018-04-14T09:29:02.375Z,994.18
2018-04-14T09:30:02.375Z,994.11
2018-04-14T09:31:02.378Z,994.12
2018-04-14T09:32:02.380Z,994.14
2018-04-14T09:33:02.390Z,994.05
2018-04-14T09:34:02.385Z,994.08
2018-04-14T09:35:02.388Z,994.12
2018-04-14T09:36:02.391Z,994.1
2018-04-14T09:37:02.474Z,994.1
2018-04-14T09:38:02.397Z,994.09
2018-04-14T09:39:02.397Z,994.05
2018-04-14T09:40:02.399Z,994.08
2018-04-14T09:41:02.401Z,994.06
2018-04-14T09:42:02.403Z,994.1
2018-04-14T09:43:02.406Z,994.07
2018-04-14T09:44:02.410Z,994.05
2018-04-14T09:45:02.419Z,993.99
2018-04-14T09:46:02.413Z,993.99
2018-04-14T09:47:02.419Z,993.96
2018-04-14T09:48:02.419Z,993.98
2018-04-14T09:49:02.422Z,993.95
2018-04-14T09:50:02.422Z,993.91
2018-04-14T09:51:02.827Z,993.91
2018-04-14T09:52:02.429Z,993.88
2018-04-14T09:53:02.430Z,993.87
2018-04-14T09:54:02.435Z,993.85
2018-04-14T09:55:02.435Z,993.84
2018-04-14T09:56:02.446Z,993.79
2018-04-14T09:57:02.446Z,993.8
2018-04-14T09:58:02.440Z,993.83
2018-04-14T09:59:02.444Z,993.81
2018-04-14T10:00:02.447Z,993.84
2018-04-14T10:01:02.450Z,993.84
2018-04-14T10:02:02.458Z,993.77
2018-04-14T10:03:02.457Z,993.79
2018-04-14T10:04:02.460Z,993.8
2018-04-14T10:05:02.458Z,993.79
2018-04-14T10:06:02.460Z,993.78
2018-04-14T10:07:02.464Z,993.78
2018-04-14T10:08:02.469Z,993.78
2018-04-14T10:09:02.470Z,993.71
2018-04-14T10:10:02.473Z,993.75
2018-04-14T10:11:02.477Z,993.74
2018-04-14T10:12:02.480Z,993.76
2018-04-14T10:13:02.481Z,993.75
2018-04-14T10:14:02.484Z,993.73
2018-04-14T10:15:02.486Z,993.75
2018-04-14T10:16:02.488Z,993.74
2018-04-14T10:17:02.492Z,993.73
2018-04-14T10:18:02.495Z,993.7
2018-04-14T10:19:02.497Z,993.68
2018-04-14T10:20:02.500Z,993.67
2018-04-14T10:21:02.503Z,993.66
2018-04-14T10:22:02.505Z,993.68
2018-04-14T10:52:44.013Z,993.36
2018-04-14T10:53:44.005Z,993.34
2018-04-14T10:54:44.004Z,993.35
2018-04-14T10:55:44.056Z,993.39
2018-04-14T10:56:43.999Z,993.33
2018-04-14T10:57:43.998Z,993.32
2018-04-14T10:58:44.001Z,993.35
2018-04-14T10:59:44.002Z,993.35
2018-04-14T11:00:43.999Z,993.37
2018-04-14T11:01:44.000Z,993.36
2018-04-14T11:02:44.002Z,993.37
2018-04-14T11:03:44.003Z,993.4
2018-04-14T11:04:44.003Z,993.37
2018-04-14T11:05:44.006Z,993.37
2018-04-14T11:06:44.010Z,993.45
2018-04-14T11:07:44.010Z,993.5
2018-04-14T11:08:44.011Z,993.49
2018-04-14T11:09:44.013Z,993.5
2018-04-14T11:10:44.012Z,993.46
2018-04-14T11:11:44.017Z,993.48
2018-04-14T11:12:44.021Z,993.5
2018-04-14T11:13:44.021Z,993.42
2018-04-14T11:14:44.024Z,993.42
2018-04-14T11:15:44.026Z,993.39
2018-04-14T11:16:44.028Z,993.42
2018-04-14T11:17:44.031Z,993.35
2018-04-14T11:18:44.043Z,993.37
2018-04-14T11:19:44.035Z,993.33
2018-04-14T11:20:44.037Z,993.33
2018-04-14T11:21:44.041Z,993.32
2018-04-14T11:22:44.045Z,993.33
2018-04-14T11:23:44.075Z,993.31
2018-04-14T11:24:44.048Z,993.29
2018-04-14T11:25:44.051Z,993.25
2018-04-14T11:26:44.055Z,993.31
2018-04-14T11:27:44.055Z,993.29
2018-04-14T11:28:44.060Z,993.28
2018-04-14T11:29:44.107Z,993.28
2018-04-14T11:30:44.064Z,993.29
2018-04-14T11:31:44.067Z,993.31
2018-04-14T11:32:44.071Z,993.31
2018-04-14T11:33:44.073Z,993.31
2018-04-14T11:34:44.082Z,993.31
2018-04-14T11:35:44.078Z,993.33
2018-04-14T11:36:44.085Z,993.29
2018-04-14T11:37:45.338Z,993.33
2018-04-14T11:38:44.091Z,993.33
2018-04-14T11:39:44.096Z,993.3
2018-04-14T11:40:44.096Z,993.36
2018-04-14T11:41:44.099Z,993.35
2018-04-14T11:42:44.104Z,993.32
2018-04-14T11:43:44.109Z,993.32
2018-04-14T11:44:44.112Z,993.35
2018-04-14T11:45:44.114Z,993.35
2018-04-14T11:46:44.121Z,993.33
2018-04-14T11:47:44.121Z,993.33
2018-04-14T11:48:44.125Z,993.31
2018-04-14T11:49:44.163Z,993.35
2018-04-14T11:50:44.146Z,993.35
2018-04-14T11:51:44.136Z,993.34
2018-04-14T11:52:44.141Z,993.3
2018-04-14T11:53:44.145Z,993.3
2018-04-14T11:54:44.149Z,993.29
2018-04-14T11:55:44.155Z,993.25
2018-04-14T11:56:44.160Z,993.21
2018-04-14T11:57:44.160Z,993.3
2018-04-14T11:58:44.164Z,993.36
2018-04-14T11:59:44.170Z,993.34
2018-04-14T12:00:44.175Z,993.34
2018-04-14T12:01:44.177Z,993.33
2018-04-14T12:02:44.187Z,993.33
2018-04-14T12:03:44.228Z,993.3
2018-04-14T12:04:44.200Z,993.34
2018-04-14T12:05:44.193Z,993.32
2018-04-14T12:06:44.205Z,993.3
2018-04-14T12:07:44.205Z,993.3
2018-04-14T12:08:44.202Z,993.3
2018-04-14T12:09:44.208Z,993.3
2018-04-14T12:10:44.211Z,993.35
2018-04-14T12:11:44.216Z,993.31
2018-04-14T12:12:44.220Z,993.29
2018-04-14T12:13:44.223Z,993.25
2018-04-14T12:14:44.228Z,993.29
2018-04-14T12:15:44.232Z,993.23
2018-04-14T12:16:44.235Z,993.27
2018-04-14T12:17:44.239Z,993.35
2018-04-14T12:18:44.245Z,993.25
2018-04-14T12:19:44.252Z,993.28
2018-04-14T12:20:44.255Z,993.27
2018-04-14T12:21:44.258Z,993.29
2018-04-14T12:22:44.316Z,993.3
2018-04-14T12:23:44.270Z,993.24
2018-04-14T12:24:44.270Z,993.29
2018-04-14T12:25:44.275Z,993.29
2018-04-14T12:26:44.279Z,993.29
2018-04-14T12:27:44.286Z,993.28
2018-04-14T12:28:44.287Z,993.3
2018-04-14T12:29:44.294Z,993.34
2018-04-14T12:30:44.305Z,993.36
2018-04-14T12:31:44.301Z,993.33
2018-04-14T12:32:44.306Z,993.37
2018-04-14T12:33:44.310Z,993.35
2018-04-14T12:34:44.312Z,993.3
2018-04-14T12:35:44.318Z,993.28
2018-04-14T12:36:44.324Z,993.32
2018-04-14T12:37:44.323Z,993.3
2018-04-14T12:38:44.580Z,993.22
2018-04-14T12:39:44.333Z,993.25
2018-04-14T12:40:44.338Z,993.25
2018-04-14T12:41:44.341Z,993.23
2018-04-14T12:42:44.342Z,993.27
2018-04-14T12:43:44.350Z,993.26
2018-04-14T12:44:44.351Z,993.26
2018-04-14T12:45:44.353Z,993.29
2018-04-14T12:46:44.362Z,993.23
2018-04-14T12:47:44.361Z,993.24
2018-04-14T12:48:44.365Z,993.27
2018-04-14T12:49:44.372Z,993.29
2018-04-14T12:50:44.371Z,993.25
2018-04-14T12:51:44.375Z,993.23
2018-04-14T12:52:44.379Z,993.26
2018-04-14T12:53:45.332Z,993.25
2018-04-14T12:54:44.390Z,993.26
2018-04-14T12:55:44.391Z,993.24
2018-04-14T12:56:44.399Z,993.2
2018-04-14T12:57:44.397Z,993.18
2018-04-14T12:58:44.400Z,993.17
2018-04-14T12:59:44.403Z,993.2
2018-04-14T13:00:44.411Z,993.24
2018-04-14T13:01:44.411Z,993.27
2018-04-14T13:02:44.414Z,993.26
2018-04-14T13:03:44.421Z,993.25
2018-04-14T13:04:44.423Z,993.27
2018-04-14T13:05:44.464Z,993.27
2018-04-14T13:06:44.431Z,993.18
2018-04-14T13:07:44.431Z,993.15
2018-04-14T13:08:44.436Z,993.11
2018-04-14T13:09:44.437Z,993.06
2018-04-14T13:10:44.438Z,993.07
2018-04-14T13:11:44.442Z,993.07
2018-04-14T13:12:44.444Z,993.04
2018-04-14T13:13:44.448Z,993.1
2018-04-14T13:14:44.451Z,993.13
2018-04-14T13:15:44.464Z,993.1
2018-04-14T13:16:44.456Z,993.14